Time;durP1;ratioP1;P1;durP2;ratioP2;P2;SDS_P1;SDS_P2;PMS_P1;PMS_P2;Temp;Humidity;BMP_temperature;BMP_pressure;BME280_temperature;BME280_humidity;BME280_pressure;Samples;Min_cycle;Max_cycle;Signal;HPM_P1;HPM_P2
2021/04/02 00:00:30;;;;;;;3.75;1.90;;;;;;;;;;6138426;28;20138;-70
2021/04/02 00:03:34;;;;;;;3.55;1.55;;;;;;;;;;6141530;28;20162;-70
2021/04/02 00:06:35;;;;;;;4.43;2.17;;;;;;;;;;6133685;28;20138;-70
2021/04/02 00:09:36;;;;;;;3.33;1.70;;;;;;;;;;6135254;28;20052;-71
2021/04/02 00:12:37;;;;;;;5.78;1.67;;;;;;;;;;6139253;28;20058;-70
2021/04/02 00:15:39;;;;;;;5.03;2.03;;;;;;;;;;6145612;28;20525;-70
2021/04/02 00:18:40;;;;;;;3.00;1.80;;;;;;;;;;6145802;28;20133;-70
2021/04/02 00:21:41;;;;;;;6.00;1.50;;;;;;;;;;6129497;28;20182;-70
2021/04/02 00:24:42;;;;;;;5.68;1.90;;;;;;;;;;6133480;28;20102;-71
2021/04/02 00:27:43;;;;;;;5.40;2.17;;;;;;;;;;6130406;28;20055;-70
2021/04/02 00:30:46;;;;;;;5.82;1.70;;;;;;;;;;6129306;28;20821;-70
2021/04/02 00:33:47;;;;;;;4.83;1.50;;;;;;;;;;6138957;28;20051;-70
2021/04/02 00:36:48;;;;;;;5.22;1.90;;;;;;;;;;6135440;28;20546;-71
2021/04/02 00:39:49;;;;;;;2.90;1.90;;;;;;;;;;6136982;28;20051;-70
2021/04/02 00:42:51;;;;;;;3.58;1.90;;;;;;;;;;6132824;28;20047;-70
2021/04/02 00:45:53;;;;;;;7.00;2.25;;;;;;;;;;6140106;28;20065;-70
2021/04/02 00:48:54;;;;;;;4.25;1.80;;;;;;;;;;6132273;28;20062;-70
2021/04/02 00:51:55;;;;;;;4.38;1.90;;;;;;;;;;6137394;28;20047;-70
2021/04/02 00:54:56;;;;;;;5.35;1.60;;;;;;;;;;6149587;28;20047;-70
2021/04/02 00:57:57;;;;;;;7.15;1.90;;;;;;;;;;6135863;28;20135;-70
2021/04/02 01:00:59;;;;;;;6.13;1.80;;;;;;;;;;6136659;28;20058;-70
2021/04/02 01:04:01;;;;;;;7.63;1.65;;;;;;;;;;6141125;23;20123;-76
2021/04/02 01:07:02;;;;;;;6.22;2.15;;;;;;;;;;6128837;29;20067;-75
2021/04/02 01:10:08;;;;;;;4.97;2.22;;;;;;;;;;6128283;29;20052;-76
2021/04/02 01:13:11;;;;;;;4.78;2.20;;;;;;;;;;6129168;29;20131;-75
2021/04/02 01:16:19;;;;;;;4.72;2.50;;;;;;;;;;6128524;29;20086;-75
2021/04/02 01:19:27;;;;;;;7.13;2.33;;;;;;;;;;6117028;29;20087;-75
2021/04/02 01:22:29;;;;;;;9.48;2.40;;;;;;;;;;6111040;29;20171;-75
2021/04/02 01:25:41;;;;;;;7.22;2.35;;;;;;;;;;6109268;29;20062;-75
2021/04/02 01:29:00;;;;;;;5.38;2.15;;;;;;;;;;6103654;29;20075;-75
2021/04/02 01:32:02;;;;;;;6.53;2.08;;;;;;;;;;6108873;29;20095;-76
2021/04/02 01:35:12;;;;;;;4.78;2.25;;;;;;;;;;6107199;29;20171;-75
2021/04/02 01:38:15;;;;;;;6.90;1.92;;;;;;;;;;6104212;29;20138;-75
2021/04/02 01:41:17;;;;;;;6.43;1.90;;;;;;;;;;6111015;29;20499;-75
2021/04/02 01:44:19;;;;;;;3.67;2.70;;;;;;;;;;6107387;29;20134;-75
2021/04/02 01:47:21;;;;;;;4.70;2.00;;;;;;;;;;6107396;29;20171;-75
2021/04/02 01:50:22;;;;;;;5.22;2.05;;;;;;;;;;6107611;29;20126;-75
2021/04/02 01:53:25;;;;;;;4.47;2.15;;;;;;;;;;6110969;29;20083;-75
2021/04/02 01:56:28;;;;;;;4.20;2.00;;;;;;;;;;6113143;29;20130;-75
2021/04/02 01:59:31;;;;;;;4.68;2.10;;;;;;;;;;6119829;29;20138;-75
2021/04/02 02:02:32;;;;;;;3.15;1.80;;;;;;;;;;6108537;29;20486;-75
2021/04/02 02:05:34;;;;;;;4.07;2.15;;;;;;;;;;6109818;29;20055;-75
2021/04/02 02:08:35;;;;;;;2.92;1.98;;;;;;;;;;6113073;29;20075;-75
2021/04/02 02:11:37;;;;;;;4.40;2.08;;;;;;;;;;6110418;29;20142;-75
2021/04/02 02:14:41;;;;;;;3.25;2.13;;;;;;;;;;6110023;28;20550;-75
2021/04/02 02:17:45;;;;;;;5.55;2.20;;;;;;;;;;6114704;29;20075;-75
2021/04/02 02:20:46;;;;;;;3.25;2.00;;;;;;;;;;6116253;29;20134;-75
2021/04/02 02:23:48;;;;;;;4.22;2.10;;;;;;;;;;6124124;29;20539;-75
2021/04/02 02:26:50;;;;;;;5.32;2.10;;;;;;;;;;6102551;29;20222;-75
2021/04/02 02:29:52;;;;;;;4.40;2.38;;;;;;;;;;6109428;29;20562;-75
2021/04/02 02:32:54;;;;;;;7.85;2.88;;;;;;;;;;6122810;28;20048;-75
2021/04/02 02:35:55;;;;;;;5.70;2.40;;;;;;;;;;6118781;29;20184;-75
2021/04/02 02:38:57;;;;;;;6.85;2.67;;;;;;;;;;6120311;29;20127;-75
2021/04/02 02:41:58;;;;;;;7.05;2.90;;;;;;;;;;6120890;29;20126;-75
2021/04/02 02:45:00;;;;;;;4.75;2.08;;;;;;;;;;6116798;29;20130;-75
2021/04/02 02:48:01;;;;;;;6.57;2.63;;;;;;;;;;6108528;29;20083;-76
2021/04/02 02:51:03;;;;;;;8.13;2.80;;;;;;;;;;6116471;29;20062;-75
2021/04/02 02:54:06;;;;;;;5.45;2.72;;;;;;;;;;6114113;29;20463;-75
2021/04/02 02:57:08;;;;;;;5.00;2.53;;;;;;;;;;6109378;29;20050;-75
2021/04/02 03:00:12;;;;;;;6.13;2.70;;;;;;;;;;6120985;29;20118;-75
2021/04/02 03:03:16;;;;;;;5.85;3.25;;;;;;;;;;6118802;29;20440;-76
2021/04/02 03:06:17;;;;;;;5.68;2.70;;;;;;;;;;6119323;29;20155;-75
2021/04/02 03:09:19;;;;;;;7.07;2.92;;;;;;;;;;6121370;29;20076;-75
2021/04/02 03:12:21;;;;;;;4.78;3.05;;;;;;;;;;6113374;29;20494;-75
2021/04/02 03:15:23;;;;;;;3.90;2.95;;;;;;;;;;6119287;29;20139;-76
2021/04/02 03:18:25;;;;;;;8.23;3.10;;;;;;;;;;6113781;29;20483;-74
2021/04/02 03:21:26;;;;;;;5.50;3.08;;;;;;;;;;6109964;29;20047;-74
2021/04/02 03:24:28;;;;;;;7.45;3.40;;;;;;;;;;6110586;29;20131;-74
2021/04/02 03:27:30;;;;;;;5.25;3.55;;;;;;;;;;6111351;29;20136;-74
2021/04/02 03:30:33;;;;;;;9.55;3.45;;;;;;;;;;6116006;29;20055;-74
2021/04/02 03:33:39;;;;;;;11.43;3.92;;;;;;;;;;6112215;29;20146;-76
2021/04/02 03:36:43;;;;;;;4.90;3.40;;;;;;;;;;6111362;29;20083;-74
2021/04/02 03:39:45;;;;;;;6.28;3.33;;;;;;;;;;6118907;29;20119;-74
2021/04/02 03:42:49;;;;;;;6.93;3.63;;;;;;;;;;6120184;29;20103;-74
2021/04/02 03:45:52;;;;;;;6.22;3.50;;;;;;;;;;6106325;29;20058;-76
2021/04/02 03:48:55;;;;;;;5.70;3.08;;;;;;;;;;6110069;29;20059;-74
2021/04/02 03:51:58;;;;;;;6.88;3.40;;;;;;;;;;6117632;29;20051;-74
2021/04/02 03:55:01;;;;;;;7.65;3.90;;;;;;;;;;6118073;29;20078;-74
2021/04/02 03:58:03;;;;;;;7.13;3.45;;;;;;;;;;6118121;29;20526;-74
2021/04/02 04:01:08;;;;;;;6.03;3.35;;;;;;;;;;6121877;29;20135;-74
2021/04/02 04:04:10;;;;;;;10.05;3.80;;;;;;;;;;6115040;29;20044;-74
2021/04/02 04:07:11;;;;;;;5.63;3.63;;;;;;;;;;6109856;29;20781;-74
2021/04/02 04:10:15;;;;;;;7.60;3.50;;;;;;;;;;6113244;29;20127;-74
2021/04/02 04:13:19;;;;;;;6.38;3.20;;;;;;;;;;6119705;29;20172;-74
2021/04/02 04:16:23;;;;;;;7.38;3.78;;;;;;;;;;6119643;29;20131;-74
2021/04/02 04:19:24;;;;;;;8.77;3.50;;;;;;;;;;6111544;29;20599;-74
2021/04/02 04:22:25;;;;;;;8.75;3.60;;;;;;;;;;6108416;29;20054;-74
2021/04/02 04:25:27;;;;;;;7.15;3.35;;;;;;;;;;6107804;29;20590;-74
2021/04/02 04:28:29;;;;;;;9.75;3.65;;;;;;;;;;6113950;29;20130;-74
2021/04/02 04:31:31;;;;;;;7.78;4.15;;;;;;;;;;6110097;29;20052;-74
2021/04/02 04:34:34;;;;;;;6.65;3.70;;;;;;;;;;6109944;29;20143;-74
2021/04/02 04:37:36;;;;;;;7.83;4.10;;;;;;;;;;6112907;29;20045;-74
2021/04/02 04:40:38;;;;;;;8.35;3.63;;;;;;;;;;6113559;29;21101;-76
2021/04/02 04:43:40;;;;;;;9.32;4.03;;;;;;;;;;6105238;29;20087;-74
2021/04/02 04:46:42;;;;;;;10.65;4.13;;;;;;;;;;6106155;29;20072;-74
2021/04/02 04:49:44;;;;;;;9.15;4.45;;;;;;;;;;6108652;29;20134;-76
2021/04/02 04:52:48;;;;;;;7.00;3.95;;;;;;;;;;6106781;29;20142;-74
2021/04/02 04:55:54;;;;;;;8.55;4.18;;;;;;;;;;6114425;29;20055;-75
2021/04/02 04:58:56;;;;;;;14.85;4.35;;;;;;;;;;6118219;29;20134;-75
2021/04/02 05:01:58;;;;;;;15.27;3.80;;;;;;;;;;6113159;29;20139;-75
2021/04/02 05:05:00;;;;;;;14.38;4.20;;;;;;;;;;6117264;29;20106;-75
2021/04/02 05:08:05;;;;;;;15.07;4.00;;;;;;;;;;6113003;29;20090;-74
2021/04/02 05:11:07;;;;;;;13.02;3.88;;;;;;;;;;6114088;29;20086;-74
2021/04/02 05:14:09;;;;;;;11.02;4.03;;;;;;;;;;6111112;29;20499;-74
2021/04/02 05:17:11;;;;;;;8.65;3.60;;;;;;;;;;6107966;29;20134;-74
2021/04/02 05:20:13;;;;;;;10.65;3.97;;;;;;;;;;6111843;29;20068;-74
2021/04/02 05:23:15;;;;;;;13.88;4.18;;;;;;;;;;6114742;29;20084;-74
2021/04/02 05:26:16;;;;;;;10.77;3.70;;;;;;;;;;6123016;29;20125;-69
2021/04/02 05:29:18;;;;;;;11.45;4.30;;;;;;;;;;6121616;29;20160;-71
2021/04/02 05:32:20;;;;;;;18.95;4.53;;;;;;;;;;6116424;29;20052;-71
2021/04/02 05:35:21;;;;;;;11.07;4.63;;;;;;;;;;6120211;29;20059;-71
2021/04/02 05:38:22;;;;;;;11.55;4.85;;;;;;;;;;6114966;29;20055;-72
2021/04/02 05:41:27;;;;;;;12.70;4.93;;;;;;;;;;6111304;29;20143;-72
2021/04/02 05:44:30;;;;;;;14.88;4.75;;;;;;;;;;6097667;29;20668;-72
2021/04/02 05:47:33;;;;;;;10.45;5.22;;;;;;;;;;6114810;29;20835;-73
2021/04/02 05:50:35;;;;;;;11.00;4.97;;;;;;;;;;6114685;29;20052;-74
2021/04/02 05:53:38;;;;;;;9.43;4.60;;;;;;;;;;6118150;29;20139;-73
2021/04/02 05:56:40;;;;;;;10.43;5.17;;;;;;;;;;6114508;29;20135;-73
2021/04/02 05:59:43;;;;;;;11.65;5.15;;;;;;;;;;6122442;29;20396;-73
2021/04/02 06:02:45;;;;;;;9.27;4.50;;;;;;;;;;6107761;29;20078;-74
2021/04/02 06:05:47;;;;;;;11.27;5.53;;;;;;;;;;6111142;29;20526;-73
2021/04/02 06:08:48;;;;;;;11.55;4.82;;;;;;;;;;6111143;29;20067;-74
2021/04/02 06:11:50;;;;;;;15.50;5.50;;;;;;;;;;6115656;29;20143;-74
2021/04/02 06:14:51;;;;;;;11.73;5.75;;;;;;;;;;6109194;29;20075;-74
2021/04/02 06:18:04;;;;;;;16.40;6.55;;;;;;;;;;6111719;29;20075;-74
2021/04/02 06:21:06;;;;;;;10.90;5.10;;;;;;;;;;6108862;29;20160;-74
2021/04/02 06:24:11;;;;;;;9.57;5.90;;;;;;;;;;6129955;29;20052;-74
2021/04/02 06:27:14;;;;;;;14.43;5.55;;;;;;;;;;6106791;29;20633;-74
2021/04/02 06:30:17;;;;;;;16.38;6.20;;;;;;;;;;6104556;29;20087;-74
2021/04/02 06:33:19;;;;;;;10.20;5.15;;;;;;;;;;6109109;29;20175;-74
2021/04/02 06:36:22;;;;;;;8.82;5.18;;;;;;;;;;6115963;29;20119;-74
2021/04/02 06:39:23;;;;;;;12.77;5.40;;;;;;;;;;6108080;29;20138;-74
2021/04/02 06:42:30;;;;;;;15.20;5.57;;;;;;;;;;6106016;29;20056;-74
2021/04/02 06:45:32;;;;;;;11.25;5.13;;;;;;;;;;6108206;29;20139;-74
2021/04/02 06:48:34;;;;;;;11.65;6.05;;;;;;;;;;6111982;29;20111;-74
2021/04/02 06:51:37;;;;;;;11.27;5.85;;;;;;;;;;6116310;29;20090;-75
2021/04/02 06:54:39;;;;;;;10.85;5.78;;;;;;;;;;6115059;29;20135;-74
2021/04/02 06:57:42;;;;;;;14.65;6.95;;;;;;;;;;6114752;29;20055;-74
2021/04/02 07:00:44;;;;;;;13.52;6.05;;;;;;;;;;6115543;29;20055;-74
2021/04/02 07:03:46;;;;;;;15.18;6.25;;;;;;;;;;6112248;29;20139;-74
2021/04/02 07:06:49;;;;;;;10.23;5.80;;;;;;;;;;6113467;29;20134;-74
2021/04/02 07:09:50;;;;;;;11.97;6.67;;;;;;;;;;6115845;29;20142;-74
2021/04/02 07:12:52;;;;;;;14.02;6.30;;;;;;;;;;6113263;29;20135;-73
2021/04/02 07:15:53;;;;;;;10.82;6.60;;;;;;;;;;6114395;29;20473;-73
2021/04/02 07:18:56;;;;;;;12.35;6.60;;;;;;;;;;6115779;29;20733;-73
2021/04/02 07:21:58;;;;;;;12.38;6.13;;;;;;;;;;6113713;29;20047;-72
2021/04/02 07:24:59;;;;;;;14.55;7.13;;;;;;;;;;6110895;29;20158;-79
2021/04/02 07:28:01;;;;;;;18.70;6.88;;;;;;;;;;6114309;29;20151;-77
2021/04/02 07:31:04;;;;;;;15.52;7.38;;;;;;;;;;6120485;29;20506;-75
2021/04/02 07:34:06;;;;;;;14.13;6.88;;;;;;;;;;6108808;29;20187;-75
2021/04/02 07:37:09;;;;;;;15.23;6.72;;;;;;;;;;6110595;29;20087;-76
2021/04/02 07:40:12;;;;;;;13.27;6.50;;;;;;;;;;6108236;29;20079;-76
2021/04/02 07:43:13;;;;;;;11.18;6.47;;;;;;;;;;6112957;29;20127;-78
2021/04/02 07:46:18;;;;;;;14.43;5.72;;;;;;;;;;6109520;29;20056;-76
2021/04/02 07:49:20;;;;;;;14.52;6.35;;;;;;;;;;6112959;29;20803;-71
2021/04/02 07:52:29;;;;;;;18.17;7.45;;;;;;;;;;6109237;29;20184;-75
2021/04/02 07:55:31;;;;;;;15.55;7.38;;;;;;;;;;6107512;29;20079;-76
2021/04/02 07:58:33;;;;;;;16.27;6.30;;;;;;;;;;6109033;29;20111;-76
2021/04/02 08:01:34;;;;;;;13.20;5.88;;;;;;;;;;6109883;29;20075;-75
2021/04/02 08:04:41;;;;;;;14.27;6.65;;;;;;;;;;6114797;29;20067;-75
2021/04/02 08:07:42;;;;;;;17.27;6.43;;;;;;;;;;6121784;28;20139;-76
2021/04/02 08:11:06;;;;;;;17.55;6.45;;;;;;;;;;6114695;29;20071;-75
2021/04/02 08:14:09;;;;;;;25.35;6.90;;;;;;;;;;6109593;29;20063;-75
2021/04/02 08:17:13;;;;;;;12.57;5.10;;;;;;;;;;6113436;29;20048;-75
2021/04/02 08:20:16;;;;;;;12.55;5.38;;;;;;;;;;6123962;29;20056;-76
2021/04/02 08:23:17;;;;;;;;;;;;;;;;;;6118013;29;20110;-76
2021/04/02 08:26:18;;;;;;;13.80;4.85;;;;;;;;;;6121677;29;20373;-76
2021/04/02 08:29:22;;;;;;;8.65;4.47;;;;;;;;;;6125167;29;20573;-76
2021/04/02 08:32:23;;;;;;;;;;;;;;;;;;6119481;29;20083;-76
2021/04/02 08:35:25;;;;;;;8.20;3.45;;;;;;;;;;6113689;29;19930;-75
2021/04/02 08:38:28;;;;;;;7.90;4.07;;;;;;;;;;6107646;29;20403;-75
2021/04/02 08:41:30;;;;;;;9.80;3.97;;;;;;;;;;6112598;29;20154;-76
2021/04/02 08:44:33;;;;;;;10.57;3.60;;;;;;;;;;6112217;29;20083;-76
2021/04/02 08:47:36;;;;;;;8.27;3.63;;;;;;;;;;6114337;29;20500;-76
2021/04/02 08:50:47;;;;;;;7.15;3.67;;;;;;;;;;6115094;29;20201;-77
2021/04/02 08:53:48;;;;;;;5.40;3.97;;;;;;;;;;6114434;29;20341;-77
2021/04/02 08:56:50;;;;;;;5.78;3.50;;;;;;;;;;6114781;29;20079;-78
2021/04/02 08:59:53;;;;;;;11.35;3.35;;;;;;;;;;6119378;28;20487;-76
2021/04/02 09:02:55;;;;;;;9.37;4.27;;;;;;;;;;6108778;29;20586;-75
2021/04/02 09:05:57;;;;;;;8.77;3.25;;;;;;;;;;6112235;29;20075;-75
2021/04/02 09:08:58;;;;;;;12.73;3.78;;;;;;;;;;6119896;29;20477;-74
2021/04/02 09:12:05;;;;;;;9.45;3.70;;;;;;;;;;6112816;29;20479;-75
2021/04/02 09:15:08;;;;;;;6.40;3.50;;;;;;;;;;6105341;29;20059;-75
2021/04/02 09:18:16;;;;;;;12.80;4.05;;;;;;;;;;6093178;29;20885;-74
2021/04/02 09:21:20;;;;;;;7.47;4.38;;;;;;;;;;6099233;29;20044;-80
2021/04/02 09:24:22;;;;;;;10.18;4.53;;;;;;;;;;6115002;29;20400;-83
2021/04/02 09:27:25;;;;;;;12.43;4.35;;;;;;;;;;6115623;29;20594;-78
2021/04/02 09:30:26;;;;;;;;;;;;;;;;;;6115086;29;20106;-79
2021/04/02 09:33:27;;;;;;;10.15;4.28;;;;;;;;;;6119194;29;19931;-77
2021/04/02 09:36:30;;;;;;;15.35;4.43;;;;;;;;;;6106004;29;20084;-78
2021/04/02 09:39:31;;;;;;;;;;;;;;;;;;6106381;29;20499;-79
2021/04/02 09:42:34;;;;;;;7.50;4.47;;;;;;;;;;6089195;29;19954;-79
2021/04/02 09:45:35;;;;;;;7.18;3.80;;;;;;;;;;6105681;29;20044;-80
2021/04/02 09:48:37;;;;;;;11.15;4.32;;;;;;;;;;6116402;29;20051;-78
2021/04/02 09:51:43;;;;;;;7.68;4.80;;;;;;;;;;6094726;29;20048;-79
2021/04/02 09:54:44;;;;;;;11.27;4.53;;;;;;;;;;6093032;29;20596;-79
2021/04/02 09:57:45;;;;;;;10.10;4.68;;;;;;;;;;6092122;29;20264;-79
2021/04/02 10:00:46;;;;;;;10.88;4.97;;;;;;;;;;6095523;29;20055;-78
2021/04/02 10:03:49;;;;;;;10.73;5.35;;;;;;;;;;6089613;29;20088;-77
2021/04/02 10:06:51;;;;;;;;;;;;;;;;;;6098636;28;20051;-78
2021/04/02 10:09:52;;;;;;;12.75;5.30;;;;;;;;;;6114949;29;20358;-80
2021/04/02 10:12:53;;;;;;;17.50;5.60;;;;;;;;;;6090886;29;20059;-75
2021/04/02 10:15:54;;;;;;;10.70;5.28;;;;;;;;;;6098981;29;20175;-74
2021/04/02 10:18:56;;;;;;;9.68;5.80;;;;;;;;;;6095876;29;20198;-75
2021/04/02 10:21:58;;;;;;;9.25;4.95;;;;;;;;;;6087315;29;20051;-74
2021/04/02 10:24:59;;;;;;;12.68;5.68;;;;;;;;;;6081884;29;20083;-73
2021/04/02 10:28:01;;;;;;;7.78;4.05;;;;;;;;;;6103048;29;20479;-74
2021/04/02 10:31:02;;;;;;;9.43;4.30;;;;;;;;;;6106078;29;20472;-74
2021/04/02 10:34:03;;;;;;;8.25;4.40;;;;;;;;;;6087765;29;20071;-72
2021/04/02 10:37:06;;;;;;;10.70;4.63;;;;;;;;;;6085476;29;20127;-73
2021/04/02 10:40:08;;;;;;;10.43;4.93;;;;;;;;;;6082556;29;20048;-72
2021/04/02 10:43:09;;;;;;;;;;;;;;;;;;6085599;29;20052;-73
2021/04/02 10:46:12;;;;;;;13.50;4.78;;;;;;;;;;6093137;29;19931;-71
2021/04/02 10:49:14;;;;;;;9.00;4.65;;;;;;;;;;6091591;29;20047;-72
2021/04/02 10:52:16;;;;;;;7.85;3.97;;;;;;;;;;6085629;29;20209;-73
2021/04/02 10:55:18;;;;;;;8.85;4.65;;;;;;;;;;6088764;29;20051;-76
2021/04/02 10:58:20;;;;;;;13.65;5.25;;;;;;;;;;6105666;29;20085;-79
2021/04/02 11:01:21;;;;;;;9.88;4.55;;;;;;;;;;6114161;29;20083;-78
2021/04/02 11:04:22;;;;;;;8.45;4.00;;;;;;;;;;6094172;29;20056;-78
2021/04/02 11:07:24;;;;;;;13.82;4.43;;;;;;;;;;6086849;29;20174;-75
2021/04/02 11:10:26;;;;;;;8.55;4.63;;;;;;;;;;6090662;29;20523;-76
2021/04/02 11:13:27;;;;;;;9.23;3.50;;;;;;;;;;6096568;29;20110;-76
2021/04/02 11:16:28;;;;;;;8.60;4.22;;;;;;;;;;6087668;29;20088;-76
2021/04/02 11:19:29;;;;;;;7.80;4.00;;;;;;;;;;6099562;29;20087;-75
2021/04/02 11:22:31;;;;;;;10.93;4.32;;;;;;;;;;6114631;29;20136;-75
2021/04/02 11:25:33;;;;;;;11.38;3.95;;;;;;;;;;6112256;29;20578;-74
2021/04/02 11:28:34;;;;;;;9.80;4.03;;;;;;;;;;6117324;29;20085;-75
2021/04/02 11:31:35;;;;;;;6.47;3.80;;;;;;;;;;6113227;29;20056;-74
2021/04/02 11:34:37;;;;;;;7.57;3.80;;;;;;;;;;6110490;29;20139;-75
2021/04/02 11:37:39;;;;;;;;;;;;;;;;;;6115321;29;20083;-77
2021/04/02 11:40:40;;;;;;;7.85;3.97;;;;;;;;;;6123163;29;19973;-75
2021/04/02 11:43:41;;;;;;;7.82;3.45;;;;;;;;;;6118324;29;20091;-79
2021/04/02 11:46:42;;;;;;;9.55;3.90;;;;;;;;;;6121299;29;20746;-84
2021/04/02 11:49:44;;;;;;;5.68;3.58;;;;;;;;;;6114997;29;20078;-73
2021/04/02 11:52:45;;;;;;;8.63;3.60;;;;;;;;;;6111971;29;20568;-73
2021/04/02 11:55:47;;;;;;;12.77;4.18;;;;;;;;;;6115252;29;20146;-72
2021/04/02 11:58:48;;;;;;;10.63;3.78;;;;;;;;;;6119598;29;20071;-72
2021/04/02 12:01:49;;;;;;;9.50;4.40;;;;;;;;;;6117889;29;20086;-72
2021/04/02 12:04:50;;;;;;;16.33;3.72;;;;;;;;;;6118192;29;20146;-69
2021/04/02 12:07:52;;;;;;;10.73;4.65;;;;;;;;;;6108763;29;20090;-71
2021/04/02 12:10:53;;;;;;;10.25;3.90;;;;;;;;;;6119967;29;20131;-76
2021/04/02 12:13:55;;;;;;;12.23;4.53;;;;;;;;;;6112338;29;20052;-74
2021/04/02 12:16:56;;;;;;;13.48;3.60;;;;;;;;;;6116952;29;20139;-74
2021/04/02 12:19:57;;;;;;;7.55;3.42;;;;;;;;;;6109878;29;20044;-77
2021/04/02 12:22:59;;;;;;;11.38;3.45;;;;;;;;;;6116208;29;20063;-78
2021/04/02 12:26:00;;;;;;;11.68;3.08;;;;;;;;;;6120032;29;20174;-78
2021/04/02 12:29:01;;;;;;;9.50;3.08;;;;;;;;;;6120734;29;20064;-78
2021/04/02 12:32:02;;;;;;;13.82;3.42;;;;;;;;;;6123712;29;20079;-78
2021/04/02 12:35:04;;;;;;;19.87;3.73;;;;;;;;;;6116137;29;20182;-79
2021/04/02 12:38:09;;;;;;;12.32;3.72;;;;;;;;;;6115298;29;20852;-77
2021/04/02 12:41:10;;;;;;;16.33;3.90;;;;;;;;;;6121598;29;20051;-78
2021/04/02 12:44:11;;;;;;;12.23;3.28;;;;;;;;;;6120337;29;20156;-78
2021/04/02 12:47:12;;;;;;;8.30;2.92;;;;;;;;;;6113721;29;20459;-78
2021/04/02 12:50:19;;;;;;;12.15;4.38;;;;;;;;;;6096557;29;20056;-78
2021/04/02 12:53:21;;;;;;;11.93;3.83;;;;;;;;;;6095462;29;20055;-78
2021/04/02 12:56:22;;;;;;;10.38;3.30;;;;;;;;;;6112501;29;20143;-75
2021/04/02 12:59:23;;;;;;;8.70;3.88;;;;;;;;;;6116557;29;20051;-77
2021/04/02 13:02:24;;;;;;;12.30;4.15;;;;;;;;;;6110773;29;20061;-77
2021/04/02 13:05:25;;;;;;;9.00;3.60;;;;;;;;;;6112547;29;20074;-78
2021/04/02 13:08:27;;;;;;;9.85;4.35;;;;;;;;;;6109477;29;20287;-78
2021/04/02 13:11:28;;;;;;;16.63;5.00;;;;;;;;;;6107459;29;20055;-77
2021/04/02 13:14:29;;;;;;;9.65;4.13;;;;;;;;;;6111970;29;20055;-75
2021/04/02 13:17:31;;;;;;;14.98;4.40;;;;;;;;;;6112839;29;20063;-76
2021/04/02 13:20:32;;;;;;;9.82;4.05;;;;;;;;;;6121152;28;20134;-77
2021/04/02 13:23:34;;;;;;;10.48;3.90;;;;;;;;;;6122246;29;20056;-78
2021/04/02 13:26:36;;;;;;;14.25;4.75;;;;;;;;;;6114414;29;20226;-77
2021/04/02 13:29:37;;;;;;;15.95;4.32;;;;;;;;;;6119176;29;20071;-77
2021/04/02 13:32:40;;;;;;;12.90;4.15;;;;;;;;;;6115054;29;20110;-77
2021/04/02 13:35:41;;;;;;;11.70;3.80;;;;;;;;;;6116400;29;20051;-77
2021/04/02 13:38:43;;;;;;;11.02;3.72;;;;;;;;;;6117685;29;20055;-77
2021/04/02 13:41:44;;;;;;;13.90;3.80;;;;;;;;;;6127124;29;20099;-77
2021/04/02 13:44:45;;;;;;;15.55;3.75;;;;;;;;;;6120190;29;20078;-78
2021/04/02 13:47:47;;;;;;;11.75;4.20;;;;;;;;;;6126632;29;20044;-77
2021/04/02 13:50:48;;;;;;;12.50;4.00;;;;;;;;;;6127497;29;20082;-77
2021/04/02 13:53:50;;;;;;;9.70;3.60;;;;;;;;;;6126042;29;20055;-77
2021/04/02 13:56:51;;;;;;;14.02;3.80;;;;;;;;;;6120123;29;20237;-79
2021/04/02 13:59:53;;;;;;;15.77;3.40;;;;;;;;;;6120638;29;20087;-77
2021/04/02 14:02:54;;;;;;;22.08;4.78;;;;;;;;;;6126087;29;20063;-78
2021/04/02 14:05:55;;;;;;;21.10;4.57;;;;;;;;;;6124984;29;20043;-80
2021/04/02 14:08:57;;;;;;;13.95;4.05;;;;;;;;;;6118103;29;20071;-77
2021/04/02 14:11:58;;;;;;;11.80;4.00;;;;;;;;;;6114528;29;20119;-77
2021/04/02 14:15:00;;;;;;;12.73;3.78;;;;;;;;;;6110423;29;20060;-77
2021/04/02 14:18:01;;;;;;;10.65;3.42;;;;;;;;;;6111343;29;20071;-77
2021/04/02 14:21:02;;;;;;;11.97;3.10;;;;;;;;;;6106747;29;20138;-77
2021/04/02 14:24:05;;;;;;;11.50;3.53;;;;;;;;;;6097660;29;20818;-78
2021/04/02 14:27:07;;;;;;;11.55;3.40;;;;;;;;;;6100776;29;20075;-77
2021/04/02 14:30:13;;;;;;;13.55;3.60;;;;;;;;;;6101743;29;20075;-78
2021/04/02 14:33:15;;;;;;;13.48;3.67;;;;;;;;;;6090296;29;20530;-78
2021/04/02 14:36:16;;;;;;;11.48;3.40;;;;;;;;;;6088540;29;20666;-75
2021/04/02 14:39:18;;;;;;;13.75;3.70;;;;;;;;;;6086972;29;20135;-77
2021/04/02 14:42:19;;;;;;;14.95;4.20;;;;;;;;;;6094125;29;20064;-78
2021/04/02 14:45:20;;;;;;;9.25;3.78;;;;;;;;;;6088440;29;20424;-77
2021/04/02 14:48:21;;;;;;;16.50;4.28;;;;;;;;;;6088610;29;20071;-77
2021/04/02 14:51:22;;;;;;;13.00;3.88;;;;;;;;;;6087468;29;20108;-76
2021/04/02 14:54:24;;;;;;;14.13;4.22;;;;;;;;;;6092975;29;20468;-77
2021/04/02 14:57:25;;;;;;;13.73;4.35;;;;;;;;;;6088945;29;20119;-78
2021/04/02 15:00:27;;;;;;;15.68;5.15;;;;;;;;;;6112031;29;20054;-78
2021/04/02 15:03:28;;;;;;;13.15;3.83;;;;;;;;;;6115021;29;21154;-79
2021/04/02 15:06:29;;;;;;;15.07;4.38;;;;;;;;;;6112118;29;20055;-80
2021/04/02 15:09:31;;;;;;;12.57;4.20;;;;;;;;;;6117615;29;20103;-80
2021/04/02 15:12:32;;;;;;;19.20;4.97;;;;;;;;;;6095399;29;20318;-76
2021/04/02 15:15:33;;;;;;;14.00;4.35;;;;;;;;;;6087921;29;20104;-80
2021/04/02 15:18:35;;;;;;;15.05;4.25;;;;;;;;;;6086460;29;20052;-79
2021/04/02 15:21:36;;;;;;;17.33;4.88;;;;;;;;;;6093161;29;20084;-79
2021/04/02 15:24:38;;;;;;;13.52;4.05;;;;;;;;;;6095951;29;20059;-80
2021/04/02 15:27:39;;;;;;;13.63;3.78;;;;;;;;;;6099814;29;20124;-79
2021/04/02 15:30:42;;;;;;;19.25;4.70;;;;;;;;;;6099499;29;20561;-78
2021/04/02 15:33:43;;;;;;;14.85;3.50;;;;;;;;;;6097061;29;20060;-78
2021/04/02 15:36:44;;;;;;;32.83;4.68;;;;;;;;;;6098584;29;20063;-80
2021/04/02 15:39:46;;;;;;;29.85;5.35;;;;;;;;;;6108435;29;20067;-80
2021/04/02 15:42:47;;;;;;;15.45;3.60;;;;;;;;;;6102957;29;20056;-80
2021/04/02 15:45:49;;;;;;;18.27;3.00;;;;;;;;;;6103987;29;20304;-80
2021/04/02 15:48:50;;;;;;;12.43;3.47;;;;;;;;;;6098704;29;20563;-82
2021/04/02 15:51:51;;;;;;;16.90;3.55;;;;;;;;;;6096049;29;20500;-78
2021/04/02 15:54:53;;;;;;;14.75;3.47;;;;;;;;;;6092337;29;20084;-80
2021/04/02 15:57:54;;;;;;;13.48;3.80;;;;;;;;;;6089891;29;20510;-79
2021/04/02 16:00:56;;;;;;;14.73;4.15;;;;;;;;;;6093191;29;20166;-79
2021/04/02 16:03:57;;;;;;;15.27;3.30;;;;;;;;;;6091080;29;20057;-79
2021/04/02 16:06:58;;;;;;;17.38;3.58;;;;;;;;;;6097980;29;20506;-78
2021/04/02 16:10:00;;;;;;;9.20;3.00;;;;;;;;;;6097743;29;20503;-75
2021/04/02 16:13:03;;;;;;;15.40;3.10;;;;;;;;;;6098376;29;20118;-78
2021/04/02 16:16:05;;;;;;;23.50;3.92;;;;;;;;;;6089534;29;20056;-80
2021/04/02 16:19:07;;;;;;;11.93;3.38;;;;;;;;;;6090710;29;20180;-79
2021/04/02 16:22:08;;;;;;;12.65;3.10;;;;;;;;;;6096470;29;20115;-79
2021/04/02 16:25:11;;;;;;;18.33;3.83;;;;;;;;;;6095905;29;20080;-80
2021/04/02 16:28:13;;;;;;;10.48;3.15;;;;;;;;;;6087746;29;20157;-79
2021/04/02 16:31:14;;;;;;;10.43;3.33;;;;;;;;;;6094047;29;20083;-80
2021/04/02 16:34:15;;;;;;;14.52;3.33;;;;;;;;;;6096341;29;20052;-79
2021/04/02 16:37:16;;;;;;;11.52;3.35;;;;;;;;;;6086680;29;20055;-79
2021/04/02 16:40:18;;;;;;;16.85;3.70;;;;;;;;;;6089254;29;20055;-79
2021/04/02 16:43:20;;;;;;;13.18;2.50;;;;;;;;;;6095663;29;20061;-79
2021/04/02 16:46:21;;;;;;;16.17;3.33;;;;;;;;;;6089680;29;20064;-79
2021/04/02 16:49:23;;;;;;;18.60;2.92;;;;;;;;;;6089700;29;20494;-79
2021/04/02 16:52:24;;;;;;;7.63;2.80;;;;;;;;;;6088311;29;20640;-79
2021/04/02 16:55:26;;;;;;;10.63;2.50;;;;;;;;;;6097695;29;20044;-79
2021/04/02 16:58:27;;;;;;;10.02;2.53;;;;;;;;;;6096428;29;20155;-79
2021/04/02 17:01:29;;;;;;;13.70;3.15;;;;;;;;;;6100308;29;20128;-80
2021/04/02 17:04:30;;;;;;;22.38;2.92;;;;;;;;;;6095014;29;20144;-81
2021/04/02 17:07:31;;;;;;;8.73;2.75;;;;;;;;;;6096997;29;20067;-80
2021/04/02 17:10:33;;;;;;;10.15;2.42;;;;;;;;;;6095487;29;20709;-80
2021/04/02 17:13:34;;;;;;;23.08;2.95;;;;;;;;;;6095872;29;20056;-78
2021/04/02 17:16:36;;;;;;;9.98;3.05;;;;;;;;;;6095007;29;20052;-78
2021/04/02 17:19:37;;;;;;;10.50;2.58;;;;;;;;;;6082273;29;20059;-76
2021/04/02 17:22:39;;;;;;;20.50;3.25;;;;;;;;;;6086913;29;20118;-76
2021/04/02 17:25:41;;;;;;;10.43;2.03;;;;;;;;;;6084277;29;20043;-73
2021/04/02 17:28:43;;;;;;;7.45;2.15;;;;;;;;;;6086943;29;20040;-78
2021/04/02 17:31:44;;;;;;;10.13;2.42;;;;;;;;;;6088025;29;20184;-78
2021/04/02 17:34:45;;;;;;;7.95;2.10;;;;;;;;;;6089110;29;20057;-78
2021/04/02 17:37:46;;;;;;;6.57;2.20;;;;;;;;;;6082465;29;20504;-78
2021/04/02 17:40:49;;;;;;;11.25;2.40;;;;;;;;;;6089684;29;20104;-78
2021/04/02 17:43:50;;;;;;;7.60;2.40;;;;;;;;;;6091706;29;20167;-78
2021/04/02 17:46:51;;;;;;;14.35;2.50;;;;;;;;;;6085954;29;20108;-83
2021/04/02 17:49:53;;;;;;;21.95;3.22;;;;;;;;;;6089080;29;20081;-78
2021/04/02 17:52:54;;;;;;;12.85;2.58;;;;;;;;;;6091659;29;20064;-79
2021/04/02 17:55:58;;;;;;;8.38;2.10;;;;;;;;;;6089182;29;20155;-78
2021/04/02 17:58:59;;;;;;;5.82;1.83;;;;;;;;;;6089777;29;20361;-77
2021/04/02 18:02:01;;;;;;;9.10;2.20;;;;;;;;;;6089406;29;20056;-78
2021/04/02 18:05:02;;;;;;;10.13;3.13;;;;;;;;;;6082712;29;20399;-78